createdAt,value
2019-02-25T00:00:29.462Z,32.20
2019-02-25T00:03:00.625Z,32.70
2019-02-25T00:05:29.653Z,32.60
2019-02-25T00:07:58.740Z,32.10
2019-02-25T00:10:27.701Z,33.40
2019-02-25T00:12:56.564Z,34.00
2019-02-25T00:15:25.402Z,34.00
2019-02-25T00:17:54.394Z,34.30
2019-02-25T00:20:24.751Z,33.80
2019-02-25T00:22:53.676Z,33.40
2019-02-25T00:25:22.595Z,34.20
2019-02-25T00:27:51.543Z,34.40
2019-02-25T00:30:20.486Z,34.00
2019-02-25T00:32:49.357Z,34.60
2019-02-25T00:35:18.265Z,34.40
2019-02-25T00:37:47.205Z,34.00
2019-02-25T00:40:19.033Z,33.80
2019-02-25T00:42:47.965Z,32.50
2019-02-25T00:45:18.018Z,32.80
2019-02-25T00:47:47.016Z,33.10
2019-02-25T00:50:18.027Z,34.20
2019-02-25T00:52:48.477Z,34.80
2019-02-25T00:55:17.722Z,35.90
2019-02-25T00:57:46.631Z,36.40
2019-02-25T01:00:25.501Z,36.90
2019-02-25T01:02:54.380Z,37.40
2019-02-25T01:05:24.050Z,38.20
2019-02-25T01:07:53.010Z,38.60
2019-02-25T01:10:21.987Z,39.00
2019-02-25T01:12:50.927Z,38.80
2019-02-25T01:15:19.807Z,39.00
2019-02-25T01:17:48.733Z,39.10
2019-02-25T01:20:18.066Z,39.20
2019-02-25T01:22:46.961Z,39.20
2019-02-25T01:25:23.209Z,39.10
2019-02-25T01:27:52.065Z,38.60
2019-02-25T01:30:21.760Z,38.30
2019-02-25T01:32:50.699Z,39.30
2019-02-25T01:35:22.606Z,39.90
2019-02-25T01:37:51.594Z,40.30
2019-02-25T01:40:20.429Z,40.30
2019-02-25T01:42:49.462Z,40.50
2019-02-25T01:45:19.868Z,40.80
2019-02-25T01:47:48.784Z,41.00
2019-02-25T01:50:17.679Z,41.60
2019-02-25T01:52:49.642Z,42.00
2019-02-25T01:55:18.539Z,42.10
2019-02-25T01:57:47.479Z,42.20
2019-02-25T02:00:19.823Z,42.50
2019-02-25T02:02:48.749Z,42.30
2019-02-25T02:05:17.649Z,43.40
2019-02-25T02:07:46.536Z,43.50
2019-02-25T02:10:16.323Z,44.40
2019-02-25T02:12:46.715Z,44.50
2019-02-25T02:15:17.695Z,44.30
2019-02-25T02:17:46.565Z,45.00
2019-02-25T02:20:17.400Z,45.10
2019-02-25T02:22:46.339Z,45.10
2019-02-25T02:25:17.663Z,44.80
2019-02-25T02:27:46.708Z,44.90
2019-02-25T02:30:17.789Z,45.10
2019-02-25T02:32:46.741Z,45.00
2019-02-25T02:35:15.643Z,43.30
2019-02-25T02:37:44.725Z,42.50
2019-02-25T02:40:15.283Z,40.00
2019-02-25T02:42:50.429Z,41.40
2019-02-25T02:45:31.007Z,36.90
2019-02-25T02:48:08.542Z,35.50
2019-02-25T02:50:37.430Z,35.00
2019-02-25T02:53:06.421Z,34.30
2019-02-25T02:55:35.205Z,34.70
2019-02-25T02:58:04.084Z,35.50
2019-02-25T03:00:33.029Z,35.40
2019-02-25T03:03:01.979Z,35.30
2019-02-25T03:05:30.995Z,35.10
2019-02-25T03:07:59.906Z,35.20
2019-02-25T03:10:30.458Z,35.30
2019-02-25T03:12:59.415Z,35.00
2019-02-25T03:15:28.323Z,35.30
2019-02-25T03:17:57.258Z,35.60
2019-02-25T03:20:26.173Z,35.20
2019-02-25T03:22:55.154Z,34.70
2019-02-25T03:25:24.070Z,35.30
2019-02-25T03:27:52.985Z,35.50
2019-02-25T03:30:22.359Z,35.70
2019-02-25T03:32:51.307Z,36.60
2019-02-25T03:35:21.822Z,36.20
2019-02-25T03:37:50.759Z,35.60
2019-02-25T03:40:23.614Z,35.10
2019-02-25T03:42:52.598Z,35.00
2019-02-25T03:45:22.990Z,36.00
2019-02-25T03:47:51.854Z,36.30
2019-02-25T03:50:21.043Z,37.20
2019-02-25T03:52:49.967Z,37.30
2019-02-25T03:55:19.999Z,35.40
2019-02-25T03:57:49.648Z,34.90
2019-02-25T04:00:26.008Z,35.80
2019-02-25T04:02:55.059Z,36.40
2019-02-25T04:05:24.046Z,35.30
2019-02-25T04:07:52.956Z,35.70
2019-02-25T04:10:21.961Z,36.40
2019-02-25T04:12:52.551Z,36.60
2019-02-25T04:15:23.058Z,37.00
2019-02-25T04:17:51.971Z,36.50
2019-02-25T04:20:20.938Z,36.40
2019-02-25T04:22:49.772Z,36.30
2019-02-25T04:25:18.758Z,36.60
2019-02-25T04:27:47.705Z,37.10
2019-02-25T04:30:17.029Z,37.30
2019-02-25T04:32:48.866Z,37.10
2019-02-25T04:35:17.847Z,37.10
2019-02-25T04:37:46.699Z,38.70
2019-02-25T04:40:15.703Z,37.80
2019-02-25T04:42:44.668Z,38.00
2019-02-25T04:45:23.127Z,38.00
2019-02-25T04:47:52.117Z,38.20
2019-02-25T04:50:21.000Z,39.50
2019-02-25T04:52:49.979Z,39.40
2019-02-25T04:55:18.931Z,38.60
2019-02-25T04:57:47.896Z,38.60
2019-02-25T05:00:26.436Z,39.10
2019-02-25T05:02:55.340Z,39.10
2019-02-25T05:05:27.221Z,38.70
2019-02-25T05:07:56.109Z,39.10
2019-02-25T05:10:25.073Z,38.70
2019-02-25T05:12:57.009Z,39.00
2019-02-25T05:15:27.299Z,38.90
2019-02-25T05:17:58.557Z,39.00
2019-02-25T05:20:26.900Z,38.90
2019-02-25T05:22:55.783Z,40.00
2019-02-25T05:25:24.734Z,39.60
2019-02-25T05:27:53.689Z,39.20
2019-02-25T05:30:22.571Z,39.80
2019-02-25T05:32:51.554Z,39.20
2019-02-25T05:35:20.522Z,39.10
2019-02-25T05:37:49.375Z,39.50
2019-02-25T05:40:19.113Z,39.60
2019-02-25T05:42:48.061Z,39.90
2019-02-25T05:45:17.106Z,40.30
2019-02-25T05:47:46.119Z,41.10
2019-02-25T05:50:19.689Z,41.50
2019-02-25T05:52:48.574Z,42.00
2019-02-25T05:55:18.349Z,42.00
2019-02-25T05:57:47.254Z,43.20
2019-02-25T06:00:21.669Z,43.60
2019-02-25T06:02:57.310Z,43.70
2019-02-25T06:05:29.418Z,43.20
2019-02-25T06:07:58.372Z,43.50
2019-02-25T06:10:27.383Z,44.30
2019-02-25T06:12:56.291Z,43.10
2019-02-25T06:15:25.167Z,44.40
2019-02-25T06:17:54.188Z,45.20
2019-02-25T06:20:23.146Z,45.10
2019-02-25T06:22:52.115Z,44.40
2019-02-25T06:25:21.050Z,44.60
2019-02-25T06:27:50.028Z,45.50
2019-02-25T06:30:20.281Z,45.70
2019-02-25T06:32:49.206Z,47.10
2019-02-25T06:35:18.150Z,46.90
2019-02-25T06:37:47.184Z,47.00
2019-02-25T06:40:20.193Z,47.30
2019-02-25T06:42:50.273Z,47.60
2019-02-25T06:45:22.848Z,47.70
2019-02-25T06:47:51.798Z,47.50
2019-02-25T06:50:20.774Z,47.60
2019-02-25T06:52:49.665Z,48.50
2019-02-25T06:55:21.446Z,48.70
2019-02-25T06:57:50.390Z,47.70
2019-02-25T07:00:20.608Z,47.50
2019-02-25T07:02:51.997Z,47.80
2019-02-25T07:05:28.769Z,47.30
2019-02-25T07:08:13.786Z,47.40
2019-02-25T07:11:00.291Z,45.80
2019-02-25T07:13:40.088Z,45.40
2019-02-25T07:16:25.419Z,44.60
2019-02-25T07:19:11.904Z,44.30
2019-02-25T07:21:42.453Z,43.50
2019-02-25T07:24:21.657Z,42.50
2019-02-25T07:27:01.211Z,42.80
2019-02-25T07:29:48.485Z,43.00
2019-02-25T07:32:35.435Z,42.10
2019-02-25T07:35:07.354Z,41.80
2019-02-25T07:37:54.793Z,41.70
2019-02-25T07:40:30.654Z,40.50
2019-02-25T07:43:22.271Z,39.90
2019-02-25T07:46:08.301Z,40.60
2019-02-25T07:48:42.454Z,39.90
2019-02-25T07:51:25.310Z,40.00
2019-02-25T07:53:59.262Z,40.50
2019-02-25T07:56:39.158Z,39.50
2019-02-25T07:59:14.830Z,40.70
2019-02-25T08:02:02.072Z,39.50
2019-02-25T08:04:32.656Z,38.90
2019-02-25T08:07:03.231Z,39.00
2019-02-25T08:09:43.186Z,38.00
2019-02-25T08:12:16.297Z,36.00
2019-02-25T08:14:49.392Z,38.00
2019-02-25T08:17:31.578Z,36.50
2019-02-25T08:20:02.060Z,38.10
2019-02-25T08:22:36.225Z,36.90
2019-02-25T08:25:17.792Z,36.90
2019-02-25T08:27:52.319Z,35.20
2019-02-25T08:30:35.753Z,34.70
2019-02-25T08:33:25.946Z,32.70
2019-02-25T08:36:29.969Z,31.30
2019-02-25T08:39:03.940Z,31.50
2019-02-25T08:41:46.829Z,23.70
2019-02-25T08:44:17.396Z,20.00
2019-02-25T08:46:57.142Z,17.30
2019-02-25T08:49:30.354Z,15.40
2019-02-25T08:52:01.173Z,14.50
2019-02-25T08:54:31.194Z,12.80
2019-02-25T08:57:00.878Z,13.10
2019-02-25T08:59:30.527Z,12.50
2019-02-25T09:01:59.646Z,10.40
2019-02-25T09:04:31.778Z,10.30
2019-02-25T09:07:00.708Z,10.40
2019-02-25T09:09:30.040Z,9.70
2019-02-25T09:12:00.242Z,9.10
2019-02-25T09:14:37.509Z,9.30
2019-02-25T09:17:06.975Z,9.80
2019-02-25T09:19:39.528Z,8.40
2019-02-25T09:22:09.421Z,8.20
2019-02-25T09:24:40.834Z,7.60
2019-02-25T09:27:10.923Z,8.00
2019-02-25T09:29:42.416Z,7.50
2019-02-25T09:32:11.416Z,7.40
2019-02-25T09:34:44.064Z,7.00
2019-02-25T09:37:13.104Z,7.00
2019-02-25T09:39:43.427Z,6.80
2019-02-25T09:42:12.543Z,6.10
2019-02-25T09:44:41.788Z,5.70
2019-02-25T09:47:11.331Z,5.70
2019-02-25T09:49:43.370Z,5.60
2019-02-25T09:52:13.108Z,5.70
2019-02-25T09:54:43.171Z,5.60
2019-02-25T09:57:14.917Z,4.90
2019-02-25T09:59:43.547Z,5.80
2019-02-25T10:02:13.418Z,5.60
2019-02-25T10:04:44.446Z,4.40
2019-02-25T10:07:13.439Z,5.50
2019-02-25T10:09:43.167Z,5.90
2019-02-25T10:12:13.055Z,5.20
2019-02-25T10:14:42.958Z,5.30
2019-02-25T10:17:13.236Z,4.70
2019-02-25T10:19:42.561Z,4.20
2019-02-25T10:22:14.674Z,4.00
2019-02-25T10:24:44.448Z,4.00
2019-02-25T10:27:13.390Z,4.10
2019-02-25T10:29:42.507Z,4.00
2019-02-25T10:32:11.591Z,4.30
2019-02-25T10:34:42.039Z,3.90
2019-02-25T10:37:13.128Z,4.10
2019-02-25T10:39:45.310Z,4.00
2019-02-25T10:42:14.468Z,3.60
2019-02-25T10:44:43.640Z,3.60
2019-02-25T10:47:14.825Z,4.10
2019-02-25T10:49:43.710Z,3.60
2019-02-25T10:52:13.391Z,3.20
2019-02-25T10:54:48.354Z,3.80
2019-02-25T10:57:21.998Z,3.30
2019-02-25T10:59:50.646Z,4.40
2019-02-25T11:02:19.669Z,3.50
2019-02-25T11:04:51.271Z,2.90
2019-02-25T11:07:21.485Z,2.90
2019-02-25T11:10:00.742Z,3.30
2019-02-25T11:12:32.617Z,3.40
2019-02-25T11:15:06.903Z,3.80
2019-02-25T11:17:35.479Z,3.40
2019-02-25T11:20:10.865Z,2.70
2019-02-25T11:22:42.406Z,3.10
2019-02-25T11:25:14.999Z,3.10
2019-02-25T11:27:47.457Z,3.30
2019-02-25T11:30:21.551Z,3.70
2019-02-25T11:32:57.439Z,3.80
2019-02-25T11:35:27.581Z,3.30
2019-02-25T11:37:59.642Z,3.80
2019-02-25T11:40:31.113Z,4.10
2019-02-25T11:43:00.454Z,3.50
2019-02-25T11:45:30.556Z,4.10
2019-02-25T11:48:00.863Z,3.70
2019-02-25T11:50:30.333Z,3.50
2019-02-25T11:53:07.411Z,4.00
2019-02-25T11:55:37.196Z,3.90
2019-02-25T11:58:07.052Z,4.30
2019-02-25T12:00:43.163Z,4.10
2019-02-25T12:03:16.280Z,3.70
2019-02-25T12:05:52.661Z,4.40
2019-02-25T12:08:22.361Z,4.00
2019-02-25T12:10:52.279Z,5.30
2019-02-25T12:13:25.803Z,7.00
2019-02-25T12:15:56.541Z,8.00
2019-02-25T12:18:26.162Z,9.90
2019-02-25T12:20:55.400Z,10.20
2019-02-25T12:23:24.731Z,11.40
2019-02-25T12:25:54.746Z,11.40
2019-02-25T12:28:26.682Z,12.00
2019-02-25T12:30:56.591Z,13.50
2019-02-25T12:33:28.148Z,14.50
2019-02-25T12:35:58.609Z,14.80
2019-02-25T12:38:29.170Z,14.70
2019-02-25T12:40:58.188Z,15.50
2019-02-25T12:43:27.796Z,16.30
2019-02-25T12:45:57.002Z,16.30
2019-02-25T12:48:26.787Z,17.20
2019-02-25T12:50:55.847Z,17.10
2019-02-25T12:53:25.659Z,17.60
2019-02-25T12:56:03.945Z,17.80
2019-02-25T12:58:33.225Z,17.50
2019-02-25T13:01:03.750Z,17.10
2019-02-25T13:03:33.277Z,16.80
2019-02-25T13:06:02.326Z,16.40
2019-02-25T13:08:36.243Z,16.90
2019-02-25T13:11:05.997Z,16.80
2019-02-25T13:13:35.253Z,15.90
2019-02-25T13:16:04.451Z,15.70
2019-02-25T13:18:34.294Z,15.00
2019-02-25T13:21:04.100Z,15.40
2019-02-25T13:23:34.034Z,15.70
2019-02-25T13:26:07.344Z,15.50
2019-02-25T13:28:35.444Z,15.90
2019-02-25T13:31:05.681Z,15.90
2019-02-25T13:33:37.315Z,16.60
2019-02-25T13:36:10.004Z,17.10
2019-02-25T13:38:39.405Z,17.50
2019-02-25T13:41:10.282Z,17.90
2019-02-25T13:43:39.561Z,18.00
2019-02-25T13:46:09.897Z,19.00
2019-02-25T13:48:39.210Z,19.50
2019-02-25T13:51:08.595Z,19.50
2019-02-25T13:53:37.898Z,19.70
2019-02-25T13:56:08.789Z,19.60
2019-02-25T13:58:37.955Z,19.80
2019-02-25T14:01:08.049Z,20.80
2019-02-25T14:03:37.570Z,21.10
2019-02-25T14:06:07.537Z,21.40
2019-02-25T14:08:36.854Z,21.40
2019-02-25T14:11:07.698Z,21.30
2019-02-25T14:13:37.815Z,22.40
2019-02-25T14:16:07.388Z,22.20
2019-02-25T14:18:36.427Z,22.90
2019-02-25T14:21:06.028Z,22.80
2019-02-25T14:23:35.514Z,22.50
2019-02-25T14:26:06.051Z,22.50
2019-02-25T14:28:35.113Z,22.40
2019-02-25T14:31:04.594Z,22.60
2019-02-25T14:33:35.900Z,23.50
2019-02-25T14:36:05.234Z,23.30
2019-02-25T14:38:36.981Z,23.60
2019-02-25T14:41:08.644Z,23.90
2019-02-25T14:43:46.482Z,23.50
2019-02-25T14:46:12.153Z,23.40
2019-02-25T14:48:42.954Z,24.30
2019-02-25T14:51:12.706Z,24.20
2019-02-25T14:53:58.484Z,23.90
2019-02-25T14:56:28.956Z,23.80
2019-02-25T14:59:03.094Z,23.90
2019-02-25T15:01:31.351Z,24.20
2019-02-25T15:04:02.286Z,24.80
2019-02-25T15:06:36.785Z,24.50
2019-02-25T15:09:11.892Z,24.40
2019-02-25T15:11:39.515Z,23.80
2019-02-25T15:14:10.660Z,23.90
2019-02-25T15:16:42.121Z,24.00
2019-02-25T15:19:16.900Z,24.60
2019-02-25T15:21:47.514Z,24.70
2019-02-25T15:24:23.656Z,25.10
2019-02-25T15:26:57.220Z,25.80
2019-02-25T15:29:27.817Z,26.10
2019-02-25T15:31:59.325Z,26.50
2019-02-25T15:34:28.956Z,26.70
2019-02-25T15:37:02.496Z,27.10
2019-02-25T15:39:31.742Z,27.00
2019-02-25T15:42:01.478Z,27.20
2019-02-25T15:44:31.083Z,27.50
2019-02-25T15:47:02.541Z,28.00
2019-02-25T15:49:32.628Z,28.10
2019-02-25T15:52:03.184Z,28.40
2019-02-25T15:54:35.021Z,28.30
2019-02-25T15:57:06.191Z,28.80
2019-02-25T15:59:39.116Z,28.80
2019-02-25T16:02:10.593Z,29.00
2019-02-25T16:04:42.445Z,29.30
2019-02-25T16:07:13.117Z,29.60
2019-02-25T16:09:43.745Z,29.50
2019-02-25T16:12:13.802Z,29.70
2019-02-25T16:14:44.320Z,30.00
2019-02-25T16:17:14.115Z,30.10
2019-02-25T16:19:47.538Z,30.50
2019-02-25T16:22:15.546Z,30.70
2019-02-25T16:24:46.969Z,30.70
2019-02-25T16:27:17.367Z,31.10
2019-02-25T16:29:48.819Z,31.50
2019-02-25T16:32:19.227Z,31.70
2019-02-25T16:34:50.733Z,31.90
2019-02-25T16:37:21.712Z,32.20
2019-02-25T16:39:50.858Z,32.50
2019-02-25T16:42:19.915Z,33.00
2019-02-25T16:44:49.841Z,33.20
2019-02-25T16:47:31.927Z,33.40
2019-02-25T16:49:52.619Z,33.60
2019-02-25T16:52:25.733Z,33.80
2019-02-25T16:54:58.676Z,34.20
2019-02-25T16:57:28.486Z,34.20
2019-02-25T17:00:02.455Z,33.90
2019-02-25T17:02:34.476Z,33.70
2019-02-25T17:05:05.698Z,33.90
2019-02-25T17:07:40.059Z,33.80
2019-02-25T17:10:12.620Z,34.00
2019-02-25T17:12:43.692Z,34.00
2019-02-25T17:15:16.654Z,34.30
2019-02-25T17:17:45.748Z,34.20
2019-02-25T17:20:17.544Z,34.50
2019-02-25T17:22:48.465Z,34.80
2019-02-25T17:25:17.573Z,34.90
2019-02-25T17:27:48.261Z,35.10
2019-02-25T17:30:20.220Z,35.40
2019-02-25T17:32:49.904Z,35.40
2019-02-25T17:35:21.443Z,35.60
2019-02-25T17:37:53.842Z,36.10
2019-02-25T17:40:21.839Z,36.80
2019-02-25T17:42:51.719Z,37.40
2019-02-25T17:45:37.204Z,37.50
2019-02-25T17:48:08.464Z,37.40
2019-02-25T17:50:39.267Z,37.20
2019-02-25T17:53:09.915Z,36.70
2019-02-25T17:55:39.032Z,36.40
2019-02-25T17:58:09.012Z,36.30
2019-02-25T18:00:45.374Z,36.20
2019-02-25T18:03:17.422Z,36.40
2019-02-25T18:05:47.175Z,36.30
2019-02-25T18:08:16.249Z,36.10
2019-02-25T18:10:45.297Z,36.00
2019-02-25T18:13:14.907Z,36.10
2019-02-25T18:15:45.150Z,36.30
2019-02-25T18:18:17.122Z,36.50
2019-02-25T18:20:45.516Z,36.50
2019-02-25T18:23:14.386Z,36.70
2019-02-25T18:25:43.492Z,36.50
2019-02-25T18:28:16.162Z,36.70
2019-02-25T18:30:49.152Z,37.00
2019-02-25T18:33:20.171Z,37.20
2019-02-25T18:35:49.449Z,37.30
2019-02-25T18:38:18.361Z,37.40
2019-02-25T18:40:47.447Z,37.90
2019-02-25T18:43:19.912Z,38.00
2019-02-25T18:45:48.665Z,38.00
2019-02-25T18:48:18.962Z,38.50
2019-02-25T18:50:50.162Z,38.70
2019-02-25T18:53:20.510Z,39.20
2019-02-25T18:55:52.092Z,39.40
2019-02-25T18:58:21.494Z,39.40
2019-02-25T19:00:51.480Z,39.40
2019-02-25T19:03:20.667Z,39.90
2019-02-25T19:05:51.045Z,40.40
2019-02-25T19:08:22.898Z,41.90
2019-02-25T19:10:53.220Z,42.10
2019-02-25T19:13:23.285Z,43.00
2019-02-25T19:15:56.602Z,43.70
2019-02-25T19:18:25.799Z,44.00
2019-02-25T19:20:54.654Z,44.40
2019-02-25T19:23:23.701Z,45.40
2019-02-25T19:25:59.028Z,45.60
2019-02-25T19:28:29.829Z,46.00
2019-02-25T19:30:58.493Z,46.50
2019-02-25T19:33:27.490Z,47.30
2019-02-25T19:35:58.350Z,48.50
2019-02-25T19:38:31.904Z,48.00
2019-02-25T19:40:57.846Z,48.00
2019-02-25T19:43:26.804Z,48.00
2019-02-25T19:45:57.172Z,48.30
2019-02-25T19:48:29.019Z,48.60
2019-02-25T19:50:58.609Z,49.00
2019-02-25T19:53:31.657Z,49.70
2019-02-25T19:56:01.491Z,50.30
2019-02-25T19:58:33.016Z,51.10
2019-02-25T20:01:03.432Z,51.90
2019-02-25T20:03:33.035Z,52.60
2019-02-25T20:06:02.260Z,52.70
2019-02-25T20:08:31.217Z,53.00
2019-02-25T20:11:00.128Z,53.90
2019-02-25T20:13:29.074Z,54.80
2019-02-25T20:16:07.337Z,54.80
2019-02-25T20:18:28.632Z,54.20
2019-02-25T20:20:59.312Z,54.20
2019-02-25T20:23:30.937Z,54.30
2019-02-25T20:25:59.826Z,54.50
2019-02-25T20:28:31.336Z,55.00
2019-02-25T20:31:00.485Z,55.20
2019-02-25T20:33:31.869Z,56.40
2019-02-25T20:36:03.162Z,57.60
2019-02-25T20:38:34.587Z,59.00
2019-02-25T20:41:02.909Z,60.10
2019-02-25T20:43:32.492Z,59.80
2019-02-25T20:46:03.388Z,61.10
2019-02-25T20:48:32.030Z,62.30
2019-02-25T20:51:02.163Z,64.10
2019-02-25T20:53:34.521Z,65.40
2019-02-25T20:56:03.487Z,65.90
2019-02-25T20:58:32.478Z,66.00
2019-02-25T21:01:05.265Z,66.30
2019-02-25T21:03:33.506Z,66.80
2019-02-25T21:06:02.750Z,65.90
2019-02-25T21:08:31.770Z,66.10
2019-02-25T21:11:06.984Z,66.90
2019-02-25T21:13:33.589Z,67.30
2019-02-25T21:16:04.841Z,67.80
2019-02-25T21:18:33.916Z,68.80
2019-02-25T21:21:05.042Z,69.50
2019-02-25T21:23:33.658Z,70.10
2019-02-25T21:26:06.309Z,71.00
2019-02-25T21:28:33.706Z,71.20
2019-02-25T21:31:10.952Z,72.20
2019-02-25T21:33:37.159Z,72.60
2019-02-25T21:36:06.053Z,74.40
2019-02-25T21:38:35.047Z,74.80
2019-02-25T21:41:04.161Z,74.40
2019-02-25T21:43:33.092Z,74.40
2019-02-25T21:46:02.010Z,75.50
2019-02-25T21:48:32.291Z,76.50
2019-02-25T21:51:05.211Z,77.80
2019-02-25T21:53:38.696Z,78.30
2019-02-25T21:56:07.593Z,78.90
2019-02-25T21:58:36.620Z,80.30
2019-02-25T22:01:05.830Z,80.60
2019-02-25T22:03:39.319Z,81.30
2019-02-25T22:06:05.394Z,82.60
2019-02-25T22:08:36.131Z,83.60
2019-02-25T22:11:12.332Z,84.30
2019-02-25T22:13:35.469Z,85.50
2019-02-25T22:16:05.714Z,86.80
2019-02-25T22:18:37.637Z,88.70
2019-02-25T22:21:09.223Z,89.60
2019-02-25T22:23:37.213Z,90.30
2019-02-25T22:26:08.861Z,91.00
2019-02-25T22:28:39.471Z,92.00
2019-02-25T22:31:10.803Z,92.30
2019-02-25T22:33:39.149Z,92.90
2019-02-25T22:36:08.133Z,93.40
2019-02-25T22:38:37.046Z,93.80
2019-02-25T22:41:07.405Z,94.40
2019-02-25T22:43:39.177Z,94.70
2019-02-25T22:46:07.649Z,94.60
2019-02-25T22:48:38.066Z,95.20
2019-02-25T22:51:07.956Z,95.40
2019-02-25T22:53:36.960Z,95.80
2019-02-25T22:56:09.061Z,95.70
2019-02-25T22:58:38.336Z,96.00
2019-02-25T23:01:14.731Z,96.10
2019-02-25T23:03:45.103Z,96.40
2019-02-25T23:06:15.634Z,96.80
2019-02-25T23:08:46.423Z,97.30
2019-02-25T23:11:16.690Z,97.70
2019-02-25T23:13:47.735Z,97.90
2019-02-25T23:16:18.060Z,98.10
2019-02-25T23:18:48.540Z,98.30
2019-02-25T23:21:23.847Z,98.60
2019-02-25T23:23:51.223Z,98.70
2019-02-25T23:26:19.892Z,98.80
2019-02-25T23:28:50.869Z,99.00
2019-02-25T23:31:19.620Z,99.10
2019-02-25T23:33:48.983Z,99.30
2019-02-25T23:36:19.543Z,99.80
2019-02-25T23:38:50.689Z,99.90
2019-02-25T23:41:22.197Z,99.90
2019-02-25T23:43:50.794Z,99.90
2019-02-25T23:46:22.901Z,99.90
2019-02-25T23:48:50.366Z,99.90
2019-02-25T23:51:21.105Z,99.90
2019-02-25T23:53:50.843Z,99.90
2019-02-25T23:56:25.148Z,99.90
2019-02-25T23:58:54.013Z,99.90
